Time;durP1;ratioP1;P1;durP2;ratioP2;P2;SDS_P1;SDS_P2;PMS_P1;PMS_P2;Temp;Humidity;BMP_temperature;BMP_pressure;BME280_temperature;BME280_humidity;BME280_pressure;Samples;Min_cycle;Max_cycle;Signal;HPM_P1;HPM_P2
2022/12/05 00:01:23;;;;;;;12.43;7.28;;;6.80;99.90;;;;;;5001544;28;20524;-72
2022/12/05 00:03:51;;;;;;;16.70;8.60;;;6.80;99.90;;;;;;4998552;28;20484;-71
2022/12/05 00:06:17;;;;;;;14.82;7.53;;;6.80;99.90;;;;;;5000474;28;20089;-72
2022/12/05 00:08:44;;;;;;;14.55;7.43;;;6.80;99.90;;;;;;5007753;28;20462;-72
2022/12/05 00:11:12;;;;;;;15.63;7.28;;;6.90;99.90;;;;;;5002455;28;20048;-72
2022/12/05 00:13:39;;;;;;;14.85;7.15;;;6.90;99.90;;;;;;5007965;28;20018;-71
2022/12/05 00:16:10;;;;;;;18.02;8.52;;;6.90;99.90;;;;;;5006025;28;20056;-72
2022/12/05 00:18:36;;;;;;;16.25;7.88;;;6.90;99.90;;;;;;5002377;28;20037;-71
2022/12/05 00:21:02;;;;;;;22.63;11.75;;;6.90;99.90;;;;;;5011078;28;20526;-74
2022/12/05 00:23:28;;;;;;;18.73;9.05;;;6.90;99.90;;;;;;5002588;28;20014;-73
2022/12/05 00:25:54;;;;;;;22.33;12.05;;;6.90;99.90;;;;;;5000430;28;20029;-73
2022/12/05 00:28:20;;;;;;;27.52;11.52;;;6.90;99.90;;;;;;5004491;28;20029;-73
2022/12/05 00:30:46;;;;;;;21.42;12.15;;;6.90;99.90;;;;;;4994205;28;20035;-73
2022/12/05 00:33:11;;;;;;;19.98;11.38;;;6.90;99.90;;;;;;5006399;28;20033;-73
2022/12/05 00:35:38;;;;;;;19.40;10.23;;;6.90;99.90;;;;;;5009799;28;20030;-72
2022/12/05 00:38:03;;;;;;;15.35;8.13;;;6.90;99.90;;;;;;4998160;28;20038;-73
2022/12/05 00:40:29;;;;;;;19.30;9.00;;;6.90;99.90;;;;;;5003205;28;20022;-72
2022/12/05 00:42:55;;;;;;;17.42;8.77;;;6.90;99.90;;;;;;4994199;28;20559;-71
2022/12/05 00:45:21;;;;;;;17.17;8.15;;;6.90;99.90;;;;;;4992249;28;20026;-73
2022/12/05 00:47:47;;;;;;;16.83;9.65;;;6.80;99.90;;;;;;4991815;28;20023;-74
2022/12/05 00:50:12;;;;;;;19.55;10.63;;;6.90;99.90;;;;;;5000963;28;20502;-75
2022/12/05 00:52:38;;;;;;;15.32;8.20;;;6.90;99.90;;;;;;5011709;28;20495;-72
2022/12/05 00:55:04;;;;;;;16.33;8.75;;;6.90;99.90;;;;;;4996796;28;20022;-73
2022/12/05 00:57:31;;;;;;;17.08;8.52;;;6.80;99.90;;;;;;5004624;28;20033;-73
2022/12/05 00:59:57;;;;;;;15.68;8.63;;;6.80;99.90;;;;;;5004716;28;20026;-73
2022/12/05 01:02:22;;;;;;;19.40;8.93;;;6.80;99.90;;;;;;5007303;28;20084;-74
2022/12/05 01:04:48;;;;;;;18.13;9.52;;;6.90;99.90;;;;;;5010963;28;20052;-75
2022/12/05 01:07:14;;;;;;;22.35;9.82;;;6.90;99.90;;;;;;5007313;28;20022;-74
2022/12/05 01:09:40;;;;;;;24.58;11.77;;;6.90;99.90;;;;;;5006965;28;20491;-75
2022/12/05 01:12:06;;;;;;;19.13;9.48;;;6.90;99.90;;;;;;4998766;28;20110;-73
2022/12/05 01:14:32;;;;;;;17.63;9.75;;;6.80;99.90;;;;;;5011223;28;20228;-74
2022/12/05 01:16:58;;;;;;;18.10;10.23;;;6.80;99.90;;;;;;5014794;28;20582;-73
2022/12/05 01:19:30;;;;;;;17.10;10.05;;;6.80;99.90;;;;;;5010830;28;20021;-73
2022/12/05 01:21:57;;;;;;;21.65;10.27;;;6.80;99.90;;;;;;5006431;28;20527;-73
2022/12/05 01:24:24;;;;;;;19.60;10.57;;;6.80;99.90;;;;;;4999215;28;20038;-73
2022/12/05 01:26:50;;;;;;;18.83;10.90;;;6.80;99.90;;;;;;4995556;28;20439;-73
2022/12/05 01:29:19;;;;;;;18.42;10.07;;;6.80;99.90;;;;;;4995205;28;20101;-73
2022/12/05 01:31:45;;;;;;;18.17;11.35;;;6.80;99.90;;;;;;4995064;28;20128;-73
2022/12/05 01:34:13;;;;;;;20.15;11.75;;;6.80;99.90;;;;;;4995512;28;20129;-73
2022/12/05 01:36:40;;;;;;;19.00;11.30;;;6.80;99.90;;;;;;5009462;28;20030;-73
2022/12/05 01:39:07;;;;;;;16.50;10.07;;;6.80;99.90;;;;;;5001400;28;20053;-73
2022/12/05 01:41:38;;;;;;;18.25;10.27;;;6.80;99.90;;;;;;5003498;28;20030;-73
2022/12/05 01:44:05;;;;;;;18.98;9.48;;;6.80;99.90;;;;;;5011650;28;20080;-73
2022/12/05 01:46:36;;;;;;;15.52;9.13;;;6.80;99.90;;;;;;5013437;28;20022;-73
2022/12/05 01:49:12;;;;;;;21.20;10.95;;;6.80;99.90;;;;;;5011749;28;20384;-74
2022/12/05 01:51:52;;;;;;;19.30;11.88;;;6.80;99.90;;;;;;5002691;28;20037;-74
2022/12/05 01:54:21;;;;;;;20.52;10.23;;;6.80;99.90;;;;;;5000183;28;20037;-72
2022/12/05 01:56:51;;;;;;;17.02;9.65;;;6.80;99.90;;;;;;5002673;28;20026;-73
2022/12/05 01:59:20;;;;;;;15.30;8.30;;;6.70;99.90;;;;;;5011480;28;20042;-73
2022/12/05 02:01:45;;;;;;;14.80;9.23;;;6.70;99.90;;;;;;4995202;28;20018;-73
2022/12/05 02:04:11;;;;;;;13.18;8.20;;;6.70;99.90;;;;;;5010419;28;20457;-72
2022/12/05 02:06:37;;;;;;;14.18;8.88;;;6.70;99.90;;;;;;4996358;28;20034;-73
2022/12/05 02:09:04;;;;;;;16.30;9.02;;;6.70;99.90;;;;;;5008935;28;20030;-73
2022/12/05 02:11:32;;;;;;;14.55;8.05;;;6.70;99.90;;;;;;5007381;28;20076;-73
2022/12/05 02:14:06;;;;;;;17.75;11.35;;;6.70;99.90;;;;;;4996537;28;20109;-73
2022/12/05 02:16:58;;;;;;;18.13;10.30;;;6.60;99.90;;;;;;5006412;28;20034;-73
2022/12/05 02:19:41;;;;;;;14.48;7.72;;;6.60;99.90;;;;;;5006737;28;20034;-72
2022/12/05 02:22:27;;;;;;;;;;;6.50;99.90;;;;;;5009509;28;20022;-73
2022/12/05 02:25:43;;;;;;;14.25;7.22;;;6.50;99.90;;;;;;4906811;29;20001;-73
2022/12/05 02:28:34;;;;;;;10.52;6.35;;;6.40;99.90;;;;;;4822889;29;20154;-73
2022/12/05 02:31:15;;;;;;;11.82;5.78;;;6.40;99.90;;;;;;4822601;29;20047;-73
2022/12/05 02:33:51;;;;;;;11.38;5.63;;;6.30;99.90;;;;;;4822863;29;20042;-73
2022/12/05 02:36:41;;;;;;;11.20;6.53;;;6.30;99.90;;;;;;4822899;29;20060;-73
2022/12/05 02:39:25;;;;;;;13.77;6.03;;;6.30;99.90;;;;;;4822586;29;20045;-71
2022/12/05 02:42:07;;;;;;;12.77;6.10;;;6.30;99.90;;;;;;4822537;29;20065;-72
2022/12/05 02:45:09;;;;;;;15.10;6.53;;;6.30;99.90;;;;;;4822576;29;20042;-73
2022/12/05 02:47:40;;;;;;;13.73;6.28;;;6.20;99.90;;;;;;4785891;30;20411;-72
2022/12/05 02:50:09;;;;;;;13.25;6.38;;;6.20;99.90;;;;;;4786023;30;20431;-73
2022/12/05 02:52:35;;;;;;;12.23;6.30;;;6.20;99.90;;;;;;4786246;30;20050;-73
2022/12/05 02:55:03;;;;;;;13.52;6.25;;;6.20;99.90;;;;;;4786126;30;20153;-73
2022/12/05 02:57:29;;;;;;;15.07;7.15;;;6.20;99.90;;;;;;4786557;30;20055;-72
2022/12/05 02:59:55;;;;;;;13.50;6.65;;;6.20;99.90;;;;;;4786371;29;20149;-72
2022/12/05 03:02:26;;;;;;;15.77;6.45;;;6.20;99.90;;;;;;4833422;29;20046;-72
2022/12/05 03:04:55;;;;;;;13.27;6.38;;;6.20;99.90;;;;;;4933444;29;20052;-73
2022/12/05 03:07:24;;;;;;;13.50;6.47;;;6.20;99.90;;;;;;4921089;29;20475;-72
2022/12/05 03:10:02;;;;;;;14.38;6.95;;;6.20;99.90;;;;;;4933977;29;20043;-73
2022/12/05 03:12:32;;;;;;;15.98;7.60;;;6.10;99.90;;;;;;4933926;29;20035;-71
2022/12/05 03:15:18;;;;;;;15.70;6.20;;;6.10;99.90;;;;;;4933935;29;20102;-71
2022/12/05 03:18:05;;;;;;;16.92;6.97;;;6.20;99.90;;;;;;4933402;29;20051;-71
2022/12/05 03:20:42;;;;;;;16.40;7.30;;;6.20;99.90;;;;;;4933401;29;20043;-72
2022/12/05 03:23:21;;;;;;;13.20;6.38;;;6.20;99.90;;;;;;4936631;28;20045;-73
2022/12/05 03:26:13;;;;;;;11.18;5.47;;;6.20;99.90;;;;;;5005153;28;20028;-73
2022/12/05 03:28:57;;;;;;;13.05;5.45;;;6.20;99.90;;;;;;4995853;28;20033;-72
2022/12/05 03:31:50;;;;;;;12.43;6.13;;;6.20;99.90;;;;;;5001371;28;20048;-72
2022/12/05 03:34:32;;;;;;;13.85;7.53;;;6.30;99.90;;;;;;4999390;28;20026;-72
2022/12/05 03:37:04;;;;;;;15.57;6.97;;;6.20;99.90;;;;;;5001217;28;20026;-71
2022/12/05 03:39:34;;;;;;;10.60;5.65;;;6.20;99.90;;;;;;5007176;28;20484;-74
2022/12/05 03:42:12;;;;;;;12.15;5.47;;;6.20;99.90;;;;;;4995737;28;20026;-74
2022/12/05 03:44:52;;;;;;;12.13;6.25;;;6.10;99.90;;;;;;5007241;28;20030;-74
2022/12/05 03:47:36;;;;;;;12.20;5.70;;;6.20;99.90;;;;;;5006511;28;20109;-73
2022/12/05 03:50:10;;;;;;;11.80;6.10;;;6.10;99.90;;;;;;5012784;28;20033;-72
2022/12/05 03:52:51;;;;;;;12.88;6.18;;;6.10;99.90;;;;;;4998987;28;20113;-73
2022/12/05 03:55:18;;;;;;;12.57;5.68;;;6.10;99.90;;;;;;5004203;28;20027;-71
2022/12/05 03:58:13;;;;;;;14.75;6.72;;;6.10;99.90;;;;;;5006907;28;20496;-71
2022/12/05 04:00:44;;;;;;;12.73;6.07;;;6.00;99.90;;;;;;4986561;28;20076;-71
2022/12/05 04:03:21;;;;;;;13.70;6.30;;;6.00;99.90;;;;;;4998635;28;20025;-73
2022/12/05 04:05:54;;;;;;;10.55;5.95;;;6.00;99.90;;;;;;5001054;28;20042;-73
2022/12/05 04:08:30;;;;;;;10.88;5.22;;;5.90;99.90;;;;;;4993077;28;20022;-72
2022/12/05 04:11:05;;;;;;;11.23;5.18;;;5.90;99.90;;;;;;5004732;28;20038;-73
2022/12/05 04:13:51;;;;;;;10.82;5.70;;;5.90;99.90;;;;;;5006641;28;20030;-74
2022/12/05 04:19:27;;;;;;;10.60;5.15;;;5.90;99.90;;;;;;4992752;28;20480;-73
2022/12/05 04:21:56;;;;;;;12.35;5.53;;;5.90;99.90;;;;;;4992317;28;20112;-73
2022/12/05 04:27:31;;;;;;;11.52;6.40;;;5.80;99.90;;;;;;4999210;28;20058;-73
2022/12/05 04:30:07;;;;;;;10.70;5.60;;;5.90;99.90;;;;;;5002130;28;20533;-74
2022/12/05 04:32:59;;;;;;;14.70;6.65;;;5.80;99.90;;;;;;5006457;28;20042;-73
2022/12/05 04:35:33;;;;;;;11.32;5.68;;;5.80;99.90;;;;;;4975091;28;20121;-72
2022/12/05 04:38:10;;;;;;;13.65;7.20;;;5.80;99.90;;;;;;4998572;28;20468;-72
2022/12/05 04:40:48;;;;;;;18.23;9.35;;;5.80;99.90;;;;;;4998075;28;20061;-71
2022/12/05 04:43:16;;;;;;;14.13;7.43;;;5.70;99.90;;;;;;5003963;28;20088;-72
2022/12/05 04:45:43;;;;;;;12.98;6.85;;;5.70;99.90;;;;;;5005985;28;20524;-72
2022/12/05 04:48:16;;;;;;;13.05;7.20;;;5.70;99.90;;;;;;5012092;28;20106;-73
2022/12/05 04:50:45;;;;;;;14.52;6.57;;;5.80;99.90;;;;;;4981400;28;20060;-72
2022/12/05 04:53:13;;;;;;;12.82;6.88;;;5.80;99.90;;;;;;5005683;28;20472;-72
2022/12/05 04:55:44;;;;;;;13.00;6.82;;;5.80;99.90;;;;;;5000412;28;20033;-73
2022/12/05 04:58:13;;;;;;;18.73;8.90;;;5.80;99.90;;;;;;5006080;28;20050;-73
2022/12/05 05:01:13;;;;;;;17.42;9.43;;;5.70;99.90;;;;;;5010081;28;20064;-73
2022/12/05 05:03:45;;;;;;;15.57;8.82;;;5.70;99.90;;;;;;5003578;28;20472;-72
2022/12/05 05:06:12;;;;;;;16.63;8.43;;;5.60;99.90;;;;;;4992096;28;20034;-73
2022/12/05 05:08:49;;;;;;;16.75;7.40;;;5.60;99.90;;;;;;4994697;28;20280;-73
2022/12/05 05:11:19;;;;;;;17.67;8.25;;;5.60;99.90;;;;;;5002059;28;20049;-73
2022/12/05 05:13:46;;;;;;;20.90;9.57;;;5.60;99.90;;;;;;4999451;28;20076;-73
2022/12/05 05:16:16;;;;;;;10.30;5.15;;;5.50;99.90;;;;;;5002394;28;20570;-73
2022/12/05 05:18:44;;;;;;;12.60;5.57;;;5.60;99.90;;;;;;4995919;28;20019;-74
2022/12/05 05:21:22;;;;;;;10.18;5.45;;;5.60;99.90;;;;;;4999640;28;20025;-72
2022/12/05 05:23:48;;;;;;;12.57;5.90;;;5.60;99.90;;;;;;5003472;28;20105;-74
2022/12/05 05:26:14;;;;;;;15.77;7.05;;;5.70;99.90;;;;;;4992780;28;20030;-72
2022/12/05 05:28:40;;;;;;;15.32;7.68;;;5.60;99.90;;;;;;4997286;28;20026;-73
2022/12/05 05:31:06;;;;;;;17.58;7.95;;;5.70;99.90;;;;;;4999884;28;20035;-74
2022/12/05 05:33:33;;;;;;;15.70;6.97;;;5.60;99.90;;;;;;5005738;28;20022;-73
2022/12/05 05:36:07;;;;;;;14.00;5.60;;;5.70;99.90;;;;;;4991808;28;20034;-73
2022/12/05 05:38:43;;;;;;;14.57;7.15;;;5.60;99.90;;;;;;4990973;28;20022;-73
2022/12/05 05:41:18;;;;;;;12.52;6.25;;;5.60;99.90;;;;;;5010268;28;20062;-74
2022/12/05 05:43:45;;;;;;;12.95;7.00;;;5.60;99.90;;;;;;4994045;28;20034;-73
2022/12/05 05:46:11;;;;;;;14.52;7.43;;;5.60;99.90;;;;;;5001499;28;20468;-74
2022/12/05 05:48:37;;;;;;;17.35;9.13;;;5.70;99.90;;;;;;4997656;28;20090;-73
2022/12/05 05:51:05;;;;;;;23.13;9.93;;;5.60;99.90;;;;;;5010671;28;20510;-73
2022/12/05 05:53:32;;;;;;;31.45;13.05;;;5.70;99.90;;;;;;4997667;28;20030;-73
2022/12/05 05:56:05;;;;;;;26.02;12.40;;;5.70;99.90;;;;;;5008633;28;20113;-73
2022/12/05 05:58:30;;;;;;;;;;;5.70;99.90;;;;;;4995801;28;20532;-73
2022/12/05 06:01:07;;;;;;;23.83;11.93;;;5.70;99.90;;;;;;4998967;28;19905;-73
2022/12/05 06:03:34;;;;;;;18.63;9.23;;;5.60;99.90;;;;;;5007941;28;20380;-74
2022/12/05 06:06:04;;;;;;;19.15;9.38;;;5.60;99.90;;;;;;4995929;28;20142;-73
2022/12/05 06:08:32;;;;;;;18.13;8.00;;;5.60;99.90;;;;;;5008726;28;20030;-73
2022/12/05 06:10:58;;;;;;;19.58;8.60;;;5.60;99.90;;;;;;4997752;28;20038;-73
2022/12/05 06:13:23;;;;;;;16.90;7.32;;;5.60;99.90;;;;;;5008228;28;20030;-73
2022/12/05 06:15:50;;;;;;;20.52;9.50;;;5.60;99.90;;;;;;5000434;28;20025;-73
2022/12/05 06:18:15;;;;;;;21.33;11.35;;;5.60;99.90;;;;;;5003036;28;20027;-73
2022/12/05 06:20:41;;;;;;;18.42;9.65;;;5.70;99.90;;;;;;5010443;28;20373;-73
2022/12/05 06:23:07;;;;;;;16.88;8.63;;;5.70;99.90;;;;;;5004575;28;20023;-73
2022/12/05 06:25:33;;;;;;;16.25;8.95;;;5.70;99.90;;;;;;4997960;28;20485;-73
2022/12/05 06:27:58;;;;;;;18.20;6.93;;;5.80;99.90;;;;;;5006546;28;20114;-73
2022/12/05 06:30:24;;;;;;;17.70;8.38;;;5.80;99.90;;;;;;5009409;28;20056;-73
2022/12/05 06:32:50;;;;;;;19.67;9.38;;;5.90;99.90;;;;;;5008139;28;20114;-73
2022/12/05 06:35:16;;;;;;;17.17;7.97;;;5.90;99.90;;;;;;5006144;28;20034;-73
2022/12/05 06:37:45;;;;;;;24.15;11.35;;;5.90;99.90;;;;;;5000231;28;20080;-73
2022/12/05 06:40:12;;;;;;;22.33;10.18;;;6.00;99.90;;;;;;5005818;28;20049;-73
2022/12/05 06:42:38;;;;;;;22.40;10.85;;;6.00;99.90;;;;;;4999463;28;20432;-73
2022/12/05 06:45:05;;;;;;;19.77;9.85;;;5.90;99.90;;;;;;5005738;28;20034;-73
2022/12/05 06:47:31;;;;;;;14.77;6.57;;;5.90;99.90;;;;;;5007602;28;20075;-73
2022/12/05 06:49:57;;;;;;;23.23;7.03;;;5.90;99.90;;;;;;5000652;28;20022;-73
2022/12/05 06:52:23;;;;;;;18.00;8.57;;;6.00;99.90;;;;;;5001116;28;20034;-73
2022/12/05 06:54:49;;;;;;;16.90;8.63;;;6.10;99.90;;;;;;4994328;28;20033;-73
2022/12/05 06:57:15;;;;;;;19.33;9.52;;;6.10;99.90;;;;;;4994187;28;20037;-74
2022/12/05 06:59:41;;;;;;;20.23;9.27;;;6.20;99.90;;;;;;4984437;28;20029;-73
2022/12/05 07:02:10;;;;;;;19.95;9.93;;;6.30;99.90;;;;;;5004983;28;20031;-73
2022/12/05 07:04:36;;;;;;;14.00;7.97;;;6.40;99.90;;;;;;4996004;28;20623;-73
2022/12/05 07:07:01;;;;;;;24.52;9.73;;;6.40;99.90;;;;;;4996724;28;20105;-73
2022/12/05 07:09:47;;;;;;;20.40;9.10;;;6.50;99.90;;;;;;5003404;28;20494;-73
2022/12/05 07:12:17;;;;;;;24.35;9.82;;;6.60;99.90;;;;;;5000007;28;20064;-73
2022/12/05 07:14:43;;;;;;;22.33;10.73;;;6.60;99.90;;;;;;5006373;28;20045;-73
2022/12/05 07:17:09;;;;;;;18.10;8.43;;;6.60;99.90;;;;;;4994729;28;20052;-73
2022/12/05 07:19:35;;;;;;;17.67;8.18;;;6.70;99.90;;;;;;4999290;28;20036;-73
2022/12/05 07:22:02;;;;;;;14.40;7.30;;;6.60;99.90;;;;;;4993749;28;20023;-73
2022/12/05 07:24:28;;;;;;;22.05;8.07;;;6.70;99.90;;;;;;5001898;28;20026;-73
2022/12/05 07:26:53;;;;;;;15.75;7.38;;;6.70;99.90;;;;;;4994080;28;20081;-73
2022/12/05 07:29:19;;;;;;;18.70;8.55;;;6.80;99.90;;;;;;4997060;28;20361;-73
2022/12/05 07:31:45;;;;;;;16.45;8.88;;;6.90;99.90;;;;;;5002678;28;20121;-74
2022/12/05 07:34:11;;;;;;;16.17;8.32;;;7.00;99.90;;;;;;5013270;28;20026;-73
2022/12/05 07:36:37;;;;;;;16.40;8.38;;;7.00;99.90;;;;;;4994722;28;20110;-73
2022/12/05 07:39:03;;;;;;;14.27;8.50;;;7.00;99.90;;;;;;4996161;28;20081;-73
2022/12/05 07:41:31;;;;;;;22.25;8.80;;;6.90;99.90;;;;;;4999214;28;20034;-73
2022/12/05 07:43:58;;;;;;;16.95;7.80;;;6.90;99.90;;;;;;5008967;28;20068;-73
2022/12/05 07:46:26;;;;;;;21.30;8.30;;;6.80;99.90;;;;;;5011303;28;20040;-73
2022/12/05 07:48:52;;;;;;;17.40;7.68;;;6.70;99.90;;;;;;5000371;28;20022;-73
2022/12/05 07:51:18;;;;;;;20.05;8.25;;;6.70;99.90;;;;;;5010779;28;20084;-73
2022/12/05 07:53:45;;;;;;;18.80;8.82;;;6.70;99.90;;;;;;4999446;28;20439;-73
2022/12/05 07:56:15;;;;;;;21.15;9.90;;;6.70;99.90;;;;;;4995054;28;20092;-73
2022/12/05 07:58:47;;;;;;;20.90;9.32;;;6.70;99.90;;;;;;5008513;28;20022;-73
2022/12/05 08:01:18;;;;;;;18.60;9.88;;;6.70;99.90;;;;;;4995910;28;20037;-72
2022/12/05 08:03:45;;;;;;;19.65;11.20;;;6.80;99.90;;;;;;4996253;28;20037;-71
2022/12/05 08:06:15;;;;;;;32.67;13.70;;;6.80;99.90;;;;;;5002060;28;20061;-73
2022/12/05 08:08:41;;;;;;;24.40;13.10;;;6.90;99.90;;;;;;4981863;28;20035;-72
2022/12/05 08:11:34;;;;;;;22.42;12.93;;;7.00;99.90;;;;;;5004318;28;20034;-73
2022/12/05 08:14:03;;;;;;;25.52;15.18;;;7.10;99.90;;;;;;4994518;23;20050;-73
2022/12/05 08:16:30;;;;;;;25.52;15.38;;;7.20;99.90;;;;;;5010941;28;20040;-76
2022/12/05 08:19:03;;;;;;;32.60;19.23;;;7.30;99.90;;;;;;5006670;28;20025;-72
2022/12/05 08:21:29;;;;;;;30.58;16.58;;;7.40;99.90;;;;;;5003455;28;20065;-73
2022/12/05 08:23:55;;;;;;;28.88;16.65;;;7.50;99.90;;;;;;4992760;28;20030;-72
2022/12/05 08:26:27;;;;;;;28.65;17.08;;;7.60;99.90;;;;;;4992955;28;20042;-74
2022/12/05 08:28:55;;;;;;;24.48;14.93;;;7.70;99.90;;;;;;4975110;28;20039;-74
2022/12/05 08:31:23;;;;;;;21.77;13.20;;;7.80;99.90;;;;;;4973898;28;20096;-72
2022/12/05 08:33:50;;;;;;;24.10;14.68;;;7.90;99.90;;;;;;4979738;28;20102;-72
2022/12/05 08:36:17;;;;;;;22.30;13.98;;;8.00;99.90;;;;;;4991898;28;20058;-72
2022/12/05 08:38:44;;;;;;;25.02;12.98;;;8.20;99.90;;;;;;4991497;28;20018;-74
2022/12/05 08:41:12;;;;;;;15.90;10.13;;;8.40;99.90;;;;;;4992583;28;20033;-72
2022/12/05 08:43:38;;;;;;;18.08;9.88;;;8.50;99.90;;;;;;4991495;28;20018;-73
2022/12/05 08:46:04;;;;;;;17.38;10.75;;;8.60;99.90;;;;;;4986538;28;20030;-73
2022/12/05 08:48:31;;;;;;;23.58;10.70;;;8.80;99.90;;;;;;4989427;28;20027;-73
2022/12/05 08:50:58;;;;;;;19.90;10.32;;;8.90;99.90;;;;;;4982752;28;20035;-73
2022/12/05 08:53:24;;;;;;;18.45;10.43;;;9.00;99.90;;;;;;4992274;28;20053;-73
2022/12/05 08:55:50;;;;;;;17.95;10.43;;;9.10;99.90;;;;;;4989735;28;20101;-74
2022/12/05 08:58:16;;;;;;;14.65;8.82;;;9.40;99.90;;;;;;4989714;28;20102;-75
2022/12/05 09:00:42;;;;;;;19.70;10.23;;;9.30;99.90;;;;;;4992228;28;20045;-74
2022/12/05 09:03:10;;;;;;;18.67;9.88;;;9.50;99.90;;;;;;4992353;28;20437;-73
2022/12/05 09:05:37;;;;;;;15.43;9.48;;;9.60;99.90;;;;;;4992271;28;20085;-76
2022/12/05 09:08:03;;;;;;;24.65;12.85;;;9.60;99.90;;;;;;4983677;28;20089;-72
2022/12/05 09:10:29;;;;;;;23.88;12.43;;;9.70;99.90;;;;;;4988464;28;20026;-73
2022/12/05 09:12:55;;;;;;;23.23;12.07;;;9.60;99.90;;;;;;4988621;28;20043;-72
2022/12/05 09:15:21;;;;;;;23.50;11.60;;;9.60;99.90;;;;;;4976631;28;20101;-74
2022/12/05 09:17:47;;;;;;;19.05;10.48;;;9.70;99.90;;;;;;4973502;28;20060;-73
2022/12/05 09:20:13;;;;;;;20.45;10.25;;;9.80;99.90;;;;;;4977706;28;20431;-72
2022/12/05 09:22:40;;;;;;;20.50;9.23;;;9.90;99.90;;;;;;4992006;28;20038;-73
2022/12/05 09:25:07;;;;;;;21.63;9.23;;;10.00;99.90;;;;;;4978022;28;20058;-74
2022/12/05 09:27:33;;;;;;;15.90;8.20;;;9.90;99.90;;;;;;4988282;28;20166;-73
2022/12/05 09:29:58;;;;;;;17.17;9.90;;;10.10;99.90;;;;;;4995141;28;20511;-74
2022/12/05 09:32:24;;;;;;;18.92;9.90;;;10.10;99.90;;;;;;4996050;28;20049;-72
2022/12/05 09:34:50;;;;;;;21.10;10.55;;;10.10;99.90;;;;;;4987200;28;20030;-71
2022/12/05 09:37:17;;;;;;;18.90;11.02;;;10.20;99.90;;;;;;4985450;28;20027;-72
2022/12/05 09:39:46;;;;;;;23.10;11.75;;;10.20;99.90;;;;;;4982254;28;20026;-72
2022/12/05 09:42:21;;;;;;;22.35;12.43;;;10.20;99.90;;;;;;4994720;28;20576;-72
2022/12/05 09:45:01;;;;;;;21.50;12.90;;;10.30;99.90;;;;;;4995689;28;20034;-72
2022/12/05 09:47:27;;;;;;;26.15;14.27;;;10.30;99.90;;;;;;4995446;28;20019;-72
2022/12/05 09:50:35;;;;;;;19.40;9.15;;;10.40;99.90;;;;;;4995617;28;20113;-71
2022/12/05 09:53:10;;;;;;;18.48;9.95;;;10.40;99.90;;;;;;4887489;29;20514;-72
2022/12/05 09:55:48;;;;;;;19.98;9.98;;;10.50;99.90;;;;;;4897101;29;20170;-72
2022/12/05 09:58:21;;;;;;;19.17;10.88;;;10.50;99.90;;;;;;4897343;29;20039;-72
2022/12/05 10:00:50;;;;;;;20.23;10.65;;;10.50;99.90;;;;;;4896519;29;20029;-72
2022/12/05 10:03:28;;;;;;;19.95;9.73;;;10.40;99.90;;;;;;4897104;29;20048;-72
2022/12/05 10:06:08;;;;;;;22.48;10.07;;;10.30;99.90;;;;;;4897093;29;20037;-72
2022/12/05 10:09:08;;;;;;;21.48;11.57;;;10.30;99.90;;;;;;4896695;29;20690;-72
2022/12/05 10:11:43;;;;;;;19.00;10.23;;;10.20;99.90;;;;;;4896934;29;20491;-71
2022/12/05 10:14:36;;;;;;;22.65;12.85;;;10.20;99.90;;;;;;4896706;29;20127;-72
2022/12/05 10:17:12;;;;;;;22.95;10.32;;;10.30;99.90;;;;;;4896812;29;20045;-72
2022/12/05 10:19:43;;;;;;;19.65;10.13;;;10.40;99.90;;;;;;4896895;29;20188;-72
2022/12/05 10:22:18;;;;;;;22.15;10.85;;;10.40;99.90;;;;;;4896676;29;20079;-73
2022/12/05 10:24:51;;;;;;;19.02;9.85;;;10.40;99.90;;;;;;4896572;29;20028;-72
2022/12/05 10:27:31;;;;;;;25.73;15.73;;;10.40;99.90;;;;;;4895912;29;20121;-74
2022/12/05 10:30:01;;;;;;;23.38;11.18;;;10.50;99.90;;;;;;4951623;29;20470;-71
2022/12/05 10:32:36;;;;;;;18.25;10.93;;;10.60;99.90;;;;;;4955284;29;20043;-71
2022/12/05 10:35:39;;;;;;;19.85;11.43;;;10.60;99.90;;;;;;4955661;28;20106;-71
2022/12/05 10:38:25;;;;;;;22.13;10.77;;;10.60;99.90;;;;;;4955473;29;20433;-72
2022/12/05 10:40:57;;;;;;;18.23;9.55;;;10.70;99.90;;;;;;4953216;28;20053;-73
2022/12/05 10:43:25;;;;;;;17.38;9.73;;;10.80;99.90;;;;;;4956436;29;20074;-72
2022/12/05 10:45:51;;;;;;;22.08;11.52;;;10.80;99.90;;;;;;4956032;28;20148;-72
2022/12/05 10:48:18;;;;;;;19.70;9.38;;;10.80;99.90;;;;;;4955732;28;20035;-72
2022/12/05 10:50:48;;;;;;;20.00;10.65;;;10.80;99.90;;;;;;4955819;28;20045;-72
2022/12/05 10:53:39;;;;;;;24.42;11.68;;;10.90;99.90;;;;;;4955584;28;20430;-72
2022/12/05 10:56:44;;;;;;;22.02;12.18;;;10.90;99.90;;;;;;4890678;29;20547;-72
2022/12/05 10:59:13;;;;;;;29.83;13.63;;;11.00;99.90;;;;;;4895455;29;20043;-72
2022/12/05 11:01:45;;;;;;;17.02;9.55;;;11.10;99.90;;;;;;4896046;29;20039;-72
2022/12/05 11:04:27;;;;;;;19.73;10.20;;;11.10;99.90;;;;;;4896168;29;20063;-72
2022/12/05 11:07:01;;;;;;;20.13;12.10;;;11.20;99.90;;;;;;4881643;29;20124;-72
2022/12/05 11:09:32;;;;;;;24.45;12.60;;;11.20;99.90;;;;;;4895965;29;20044;-72
2022/12/05 11:12:16;;;;;;;22.13;13.60;;;11.30;99.90;;;;;;4895906;29;20395;-72
2022/12/05 11:15:04;;;;;;;20.90;13.18;;;11.40;99.90;;;;;;4895419;29;20041;-72
2022/12/05 11:17:37;;;;;;;21.90;11.32;;;11.40;99.90;;;;;;4894930;29;20033;-72
2022/12/05 11:20:23;;;;;;;19.25;10.00;;;11.50;99.90;;;;;;4896113;29;20570;-72
2022/12/05 11:22:55;;;;;;;19.25;9.48;;;11.50;99.90;;;;;;4888596;29;20025;-72
2022/12/05 11:25:35;;;;;;;19.58;9.60;;;11.50;99.90;;;;;;4890479;29;20037;-72
2022/12/05 11:28:31;;;;;;;20.98;10.95;;;11.50;99.90;;;;;;4896116;29;20354;-72
2022/12/05 11:31:15;;;;;;;16.90;7.75;;;11.60;99.90;;;;;;4821509;29;20122;-72
2022/12/05 11:33:41;;;;;;;15.27;8.43;;;11.70;99.90;;;;;;4877648;29;20117;-72
2022/12/05 11:36:22;;;;;;;22.35;10.57;;;11.90;99.90;;;;;;4895631;29;20049;-72
2022/12/05 11:38:48;;;;;;;18.40;8.55;;;12.20;99.90;;;;;;4895314;29;20033;-73
2022/12/05 11:41:29;;;;;;;16.60;8.40;;;12.40;99.90;;;;;;4895484;29;20499;-73
2022/12/05 11:44:13;;;;;;;16.83;7.90;;;12.40;99.90;;;;;;4895148;29;20516;-72
2022/12/05 11:47:00;;;;;;;18.13;8.70;;;12.40;99.90;;;;;;4883896;29;20145;-72
2022/12/05 11:49:40;;;;;;;17.35;9.23;;;12.40;99.90;;;;;;4894668;29;20068;-72
2022/12/05 11:52:39;;;;;;;22.77;11.00;;;12.40;99.90;;;;;;4895291;29;20401;-72
2022/12/05 11:55:23;;;;;;;19.35;10.25;;;12.50;99.90;;;;;;4895295;29;20043;-74
2022/12/05 11:58:00;;;;;;;21.02;10.75;;;12.50;99.90;;;;;;4894998;29;20163;-72
2022/12/05 12:00:38;;;;;;;20.58;9.75;;;12.50;99.90;;;;;;4894890;29;20072;-73
2022/12/05 12:03:28;;;;;;;21.55;11.95;;;12.40;99.90;;;;;;4895003;29;20037;-72
2022/12/05 12:06:00;;;;;;;24.58;10.50;;;12.40;99.90;;;;;;4895051;29;20036;-72
2022/12/05 12:08:38;;;;;;;25.27;11.53;;;12.30;99.90;;;;;;4951090;29;20079;-74
2022/12/05 12:11:07;;;;;;;19.98;9.60;;;12.30;99.90;;;;;;4954122;28;20293;-72
2022/12/05 12:13:55;;;;;;;19.00;9.27;;;12.30;99.90;;;;;;4952497;28;20023;-73
2022/12/05 12:16:37;;;;;;;13.82;8.27;;;12.20;99.90;;;;;;4978034;28;20149;-71
2022/12/05 12:19:34;;;;;;;21.45;9.38;;;12.10;99.90;;;;;;4979163;28;20037;-73
2022/12/05 12:22:12;;;;;;;20.05;10.68;;;12.10;99.90;;;;;;4986877;28;20018;-72
2022/12/05 12:24:51;;;;;;;23.05;13.23;;;12.10;99.90;;;;;;4989094;28;20092;-72
2022/12/05 12:27:26;;;;;;;17.08;9.52;;;12.10;99.90;;;;;;4987558;28;20096;-74
2022/12/05 12:30:03;;;;;;;18.73;11.23;;;12.20;99.90;;;;;;4984821;28;20029;-72
2022/12/05 12:32:47;;;;;;;26.25;11.93;;;12.20;99.90;;;;;;4981946;28;20377;-72
2022/12/05 12:35:16;;;;;;;21.00;11.38;;;12.30;99.90;;;;;;4983235;28;20037;-72
2022/12/05 12:38:00;;;;;;;24.73;13.70;;;12.40;99.90;;;;;;4992023;28;20477;-71
2022/12/05 12:40:35;;;;;;;22.23;11.25;;;12.40;99.90;;;;;;4969525;28;20458;-72
2022/12/05 12:43:24;;;;;;;25.50;14.90;;;12.50;99.90;;;;;;4982548;28;20027;-73
2022/12/05 12:46:12;;;;;;;26.70;11.82;;;12.50;99.90;;;;;;4963702;28;20489;-74
2022/12/05 12:49:06;;;;;;;19.88;9.77;;;12.50;99.90;;;;;;4980692;28;20031;-72
2022/12/05 12:51:32;;;;;;;23.05;11.20;;;12.60;99.90;;;;;;4992201;28;20130;-71
2022/12/05 12:54:18;;;;;;;22.02;10.77;;;12.60;99.90;;;;;;4988063;28;20022;-71
2022/12/05 12:57:23;;;;;;;23.65;11.00;;;12.60;99.90;;;;;;4981945;28;20118;-71
2022/12/05 13:00:11;;;;;;;19.48;9.07;;;12.70;99.90;;;;;;4982874;28;20049;-72
2022/12/05 13:02:54;;;;;;;17.63;10.25;;;12.70;99.90;;;;;;4982791;28;20030;-71
2022/12/05 13:05:47;;;;;;;25.30;14.18;;;12.70;99.90;;;;;;4991382;28;20027;-71
2022/12/05 13:08:25;;;;;;;20.13;9.57;;;12.70;99.90;;;;;;4985409;28;20076;-71
2022/12/05 13:10:52;;;;;;;17.35;9.27;;;12.70;99.90;;;;;;4982846;28;20030;-72
2022/12/05 13:13:52;;;;;;;18.63;10.60;;;12.70;99.90;;;;;;4982140;28;20031;-72
2022/12/05 13:16:48;;;;;;;23.40;14.23;;;12.50;99.90;;;;;;4988506;28;20047;-72